Maryland METAR Reports


Distance/Direction noted is from Ellicott City, MD as the crow flies

KCBE - Cumberland - 118 miles WNW
Updated: Sat, 07/26/2014 12:43 AM
Mostly Cloudy
Mostly Cloudy
 Wind from N
Wind: N 3 mph
Temperature: 68°F
Dew Point: 57°F
Humidity: 69%
Barometer: 30.05 inHg
Clouds: Mostly Cloudy
Visibility: 10 miles
Cloud Details: Mostly Cloudy 4800 ft
Mostly Cloudy 6000 ft
2014/07/26 04:43 KCBE 260443Z AUTO 35003KT 10SM BKN048 BKN060 20/14 A3005 RMK AO1
KHGR - Hagerstown - 57 miles NW
Updated: Sat, 07/26/2014 12:53 AM
Clear
Clear
 Wind from calm
Wind: Calm
Temperature: 70°F
Dew Point: 57°F
Humidity: 64%
Barometer: 30.01 inHg
Clouds: Clear
Visibility: 10 miles
2014/07/26 04:53 KHGR 260453Z AUTO 00000KT 10SM CLR 21/14 A3001 RMK AO2 SLP168 T02060139 402720144
 
KFDK - Frederick - 34 miles NW
Updated: Sat, 07/26/2014 1:00 AM
Clear
Clear
 Wind from calm
Wind: Calm
Temperature: 63°F
Dew Point: 63°F
Humidity: 100%
Barometer: 30.05 inHg
Clouds: Clear
Visibility: 10 miles
2014/07/26 05:00 KFDK 260500Z AUTO 00000KT 10SM CLR 17/17 A3005 RMK AO2
KGAI - Gaithersburg - 26 miles SW
Updated: Sat, 07/26/2014 12:55 AM
Clear
Clear
 Wind from calm
Wind: Calm
Temperature: 63°F
Dew Point: 57°F
Humidity: 83%
Barometer: 30.06 inHg
Clouds: Clear
Visibility: 10 miles
2014/07/26 04:55 KGAI 260455Z AUTO 00000KT 10SM CLR 17/14 A3006 RMK AO1
 
KBWI - BWI Airport - 15 miles SE
Updated: Sat, 07/26/2014 12:54 AM
Mostly Cloudy
Mostly Cloudy
 Wind from calm
Wind: Calm
Temperature: 64°F
Dew Point: 57°F
Humidity: 78%
Barometer: 30.01 inHg
Clouds: Mostly Cloudy
Visibility: 10 miles
Cloud Details: Mostly Cloudy 25000 ft
2014/07/26 04:54 KBWI 260454Z 00000KT 10SM BKN250 18/14 A3001 RMK AO2 SLP160 T01780144 402830139
KNAK - Annapolis - 32 miles SSE
Updated: Sat, 07/26/2014 12:54 AM
Clear
Clear
 Wind from S
Wind: S 5 mph
Temperature: 72°F
Dew Point: 61°F
Humidity: 69%
Barometer: 30.01 inHg
Clouds: Clear
Visibility: 10 miles
2014/07/26 04:54 KNAK 260454Z AUTO 18004KT 10SM CLR 22/16 A3001 RMK AO2 SLP162 T02220161 402670189
 
KESN - Easton - 63 miles SE
Updated: Sat, 07/26/2014 12:34 AM
Clear
Clear
 Wind from calm
Wind: Calm
Temperature: 70°F
Dew Point: 57°F
Humidity: 64%
Barometer: 30.05 inHg
Clouds: Clear
Visibility: 10 miles
2014/07/26 04:34 KESN 260434Z AUTO 00000KT 10SM CLR 21/14 A3005 RMK AO2 T02060139
KSBY - Salisbury - 112 miles SE
Updated: Tue, 07/15/2014 5:28 PM
NOT Current
Heavy rain, Mostly cloudy
Heavy rain, Mostly cloudy
 Wind from SSW
Wind: SSW 14 mph, Gust: 37 mph
Temperature: 81°F
Heat Index: 86°F
Dew Point: 73°F
Humidity: 79%
Barometer: 29.78 inHg
Summary: Heavy Rain
Clouds: Mostly Cloudy
Visibility: 1/2 mile
Cloud Details: Few Clouds 600 ft
Partly Cloudy 1600 ft
Mostly Cloudy 2800 ft
2014/07/15 21:28 KSBY 152128Z AUTO 20012G32KT 1/2SM +RA FEW006 SCT016 BKN028 27/23 A2978 RMK AO2 PK WND 21032/2123 RAB26 P0028 TSNO